863  
NZUS99 KBOU 160647  
SYNBOU  
 
HOT-AIR BALLOON FORECAST FOR COLORADO  
NATIONAL WEATHER SERVICE DENVER/BOULDER, COLORADO  
0045 MDT THURSDAY, AUGUST 16, 2018  
 
* * * * * NORTHEAST COLORADO * * * * *  
 
METAR KFNL 160556Z AUTO 35005KT 10SM CLR 19/11 A3013 RMK AO2 SLP137  
6//// T01940106 10311 20189 50015 PNO $  
METAR KFNL 160456Z AUTO 36004KT 10SM CLR 21/10 A3013 RMK AO2 SLP140  
T02060100 PNO $  
METAR KFNL 160356Z AUTO 33005KT 10SM CLR 21/12 A3011 RMK AO2 SLP136  
T02110117 PNO $  
 
METAR KGXY 160556Z AUTO 31005KT 10SM CLR 16/12 A3011 RMK AO2 SLP154  
T01610117 10311 20161 51014  
METAR KGXY 160456Z AUTO 00000KT 10SM CLR 18/11 A3010 RMK AO2 SLP152  
T01830111  
METAR KGXY 160356Z AUTO 08003KT 10SM CLR 20/11 A3008 RMK AO2 SLP146  
T02000111  
 
METAR KLMO 160635Z AUTO 31006KT 7SM CLR 19/10 A3015 RMK AO2  
T01880100  
METAR KLMO 160615Z AUTO 32004KT 10SM CLR 20/10 A3014 RMK AO2  
T01970100  
METAR KLMO 160555Z AUTO 35006KT 10SM CLR 21/10 A3013 RMK AO2  
T02120096  
 
METAR KBDU 160636Z AUTO 32007KT 10SM CLR 20/08 A3014 RMK AO2  
METAR KBDU 160612Z AUTO 32005KT 10SM CLR 21/08 A3013 RMK AO2  
METAR KBDU 160553Z AUTO 32004KT 10SM CLR 21/08 A3013 RMK AO2  
 
METAR KEIK 160636Z AUTO 35003KT 10SM CLR 17/11 A3017 RMK AO2  
T01710106  
METAR KEIK 160630Z AUTO 36004KT 10SM CLR 17/11 A3017 RMK AO2  
T01730108  
METAR KEIK 160636Z AUTO 35003KT 10SM CLR 17/11 A3017 RMK AO2  
T01710106  
 
KBJC 160540Z 1606/1706 33007KT P6SM SCT200  
FM162000 07007KT P6SM SCT090  
FM170000 13009KT P6SM SCT090 BKN150  
FM170400 29007KT P6SM FEW090 SCT150  
METAR KBJC 160632Z AUTO 34014KT 10SM CLR 21/08 A3015 RMK AO2  
METAR KBJC 160614Z AUTO 34015KT 10SM CLR 21/08 A3014 RMK AO2  
METAR KBJC 160608Z AUTO 33015KT 10SM CLR 21/08 A3014 RMK AO2  
 
KDEN 160540Z 1606/1712 06007KT P6SM FEW090  
FM160800 21008KT P6SM SCT200  
FM161600 32008KT P6SM FEW200  
FM162000 09008KT P6SM FEW090  
FM170100 11013KT P6SM SCT090 BKN150  
FM170600 13011KT P6SM FEW090 SCT150  
METAR KDEN 160553Z 00000KT 10SM FEW090 FEW220 19/11 A3011 RMK AO2 SLP114  
T01940106 10306 20178 51008  
METAR KDEN 160453Z 12004KT 10SM FEW090 20/11 A3011 RMK AO2 SLP113  
T02000106  
METAR KDEN 160353Z 16007KT 10SM FEW160 19/12 A3010 RMK AO2 SLP119  
T01890122  
 
KBKF 1601/1707 11012KT 9999 FEW100 QNH3005INS  
TEMPO 1601/1602 18020G35KT 520009  
BECMG 1603/1604 18012G18KT 9999 FEW100 QNH3006INS  
BECMG 1605/1606 VRB06KT 9999 FEW150 QNH3008INS  
BECMG 1607/1608 34012G18KT 9999 FEW100 QNH3010INS  
TEMPO 1608/1611 34015G25KT 510009  
BECMG 1611/1612 VRB06KT 9999 FEW150 QNH3015INS  
BECMG 1621/1622 05012G18KT 9999 VCTS FEW100CB QNH3020INS  
TX29/1623Z TN15/1612Z  
METAR KBKF 160558Z 26006KT 10SM FEW220 19/11 A3013 RMK AO2A SLP124  
T01860109 10280 20185 52008  
METAR KBKF 160458Z 19012KT 10SM FEW220 20/11 A3012 RMK AO2A SLP123  
T02000107  
METAR KBKF 160358Z 19012KT 10SM FEW110 FEW220 21/10 A3011 RMK AO2A  
SLP119 T02110100  
 
KAPA 160540Z 1606/1706 20008KT P6SM FEW200  
FM161500 32007KT P6SM FEW200  
FM162000 05008KT P6SM FEW090  
FM170100 10010KT P6SM SCT090 BKN150  
METAR KAPA 160553Z 21009KT 10SM FEW220 18/11 A3014 RMK AO2 SLP128  
T01830106 10300 20172 51009  
METAR KAPA 160453Z 18008KT 10SM FEW220 19/11 A3013 RMK AO2 SLP127  
T01940106  
METAR KAPA 160353Z 15011KT 10SM FEW220 21/10 A3013 RMK AO2 SLP124  
T02060100  
 
METAR KMNH 160629Z AUTO 21004KT 10SM CLR 15/08 A3025 RMK AO2  
METAR KMNH 160606Z AUTO 19008KT 10SM CLR 13/08 A3025 RMK AO2  
METAR KMNH 160548Z AUTO 19008KT 10SM CLR 14/08 A3025 RMK AO2  
 
METAR KFMM 160635Z AUTO 04009KT 10SM CLR 17/13 A3007 RMK AO2  
T01660127  
METAR KFMM 160615Z AUTO 05011KT 10SM CLR 17/13 A3008 RMK AO2  
T01700127  
METAR KFMM 160555Z AUTO 05010KT 10SM CLR 18/13 A3008 RMK AO2 T01750128  
10305 20172 403270138  
 
METAR KSTK 160630Z AUTO 04007KT 10SM CLR 16/15 A3004 RMK AO2  
METAR KSTK 160640Z AUTO 04005KT 10SM CLR 16/15 A3005 RMK AO2  
METAR KSTK 160630Z AUTO 04007KT 10SM CLR 16/15 A3004 RMK AO2  
 
METAR KAKO 160553Z AUTO 06005KT 10SM CLR 16/13 A3009 RMK AO2 SLP129  
T01610133 10306 20161 51012  
METAR KAKO 160453Z AUTO 05006KT 10SM CLR 18/11 A3008 RMK AO2 SLP127  
T01780111  
METAR KAKO 160353Z AUTO 06006KT 10SM CLR 21/07 A3007 RMK AO2 SLP124  
T02060072  
 
METAR KLIC 160555Z AUTO 34006KT 10SM CLR 15/10 A3011 RMK AO2 SLP122  
T01500100 10283 20139 58000  
METAR KLIC 160455Z AUTO 33003KT 10SM CLR 15/11 A3011 RMK AO2 SLP127  
T01500111  
METAR KLIC 160355Z AUTO 00000KT 10SM CLR 17/10 A3012 RMK AO2 SLP130  
T01720100  
 
METAR KHEQ 160630Z AUTO 05004KT 10SM CLR 17/16 A3004 RMK AO2  
METAR KHEQ 160610Z AUTO 03005KT 10SM CLR 17/15 A3004 RMK AO2  
METAR KHEQ 160550Z AUTO 03005KT 10SM CLR 17/15 A3004 RMK AO2  
 
METAR K2V6 160629Z AUTO 35006KT 10SM CLR 16/06 A3003 RMK AO2  
METAR K2V6 160609Z AUTO 34006KT 10SM CLR 16/06 A3004 RMK AO2  
METAR K2V6 160544Z AUTO 33005KT 10SM CLR 17/06 A3005 RMK AO2  
 
METAR K2V5 160635Z AUTO 33007KT 10SM CLR 16/12 A3001 RMK AO2  
METAR K2V5 160615Z AUTO 33007KT 10SM CLR 17/11 A3003 RMK AO2  
METAR K2V5 160555Z AUTO 27006KT 10SM CLR 19/11 A3001 RMK AO2  
 
METAR KITR 160553Z AUTO 12006KT 10SM CLR 19/15 A3005 RMK AO2 SLP119  
T01940150 10294 20194 53007  
METAR KITR 160453Z AUTO 20006KT 10SM CLR 22/16 A3004 RMK AO2 SLP112  
T02220156  
METAR KITR 160353Z AUTO 19007KT 10SM CLR 23/16 A3004 RMK AO2 SLP112  
T02330156  
 
SUNRISE/SUNSET FOR 08/16/2018  
FORT COLLINS - 06:12:11 MDT / 19:56:51 MDT  
DENVER - 06:13:13 MDT / 19:54:58 MDT  
STERLING - 06:04:36 MDT / 19:49:36 MDT  
 
DENVER/BOULDER (KFTG) 08/16/18 06:39 UTC  
RADAR VAD WINDS HEIGHT DIR/SPD(KT)  
16000 FT MSL...334/038  
15000 FT MSL...336/040  
14500 FT MSL...336/040  
14000 FT MSL...337/038  
13000 FT MSL...336/034  
12700 FT MSL...336/031  
12000 FT MSL...331/026  
11200 FT MSL...327/020  
11000 FT MSL...327/017  
10000 FT MSL...343/020  
10000 FT MSL...345/013  
9000 FT MSL...336/020  
8900 FT MSL...331/018  
8100 FT MSL...331/020  
8000 FT MSL...331/020  
7300 FT MSL...332/022  
7000 FT MSL...333/023  
6600 FT MSL...339/024  
6200 FT MSL...329/024  
6000 FT MSL...329/022  
5900 FT MSL...326/022  
 
DENVER/BOULDER AVIATION DISCUSSION  
ISSUED AT 0255 UTC THURSDAY, AUGUST 16, 2018  
   
AVIATION
 
(FOR THE 00Z TAFS THROUGH 00Z THURSDAY EVENING)  
ISSUED AT 850 PM MDT WED AUG 15 2018  
HAZY VFR CONDITIONS ON TAP TONIGHT WITH LINGERING WILDFIRE SMOKE  
IN THE AREA. SOUTHERLY WINDS OF 7-15KTS THIS EVENING MAY BRIEFLY  
BECOME NORTHEASTERLY AROUND 06Z WITH A PUSH OF SLIGHTLY COOLER  
AND MORE HUMID AIR ORIGINATING FROM T-STORMS UP IN NEBRASKA  
EARLIER THIS AFTERNOON. THEN LOOK FOR A GRADUAL SHIFT TO A LIGHT  
WEST-NORTHWEST WIND TOWARDS SUNRISE UNDER A CLEAR TO PARTLY  
CLOUDY SKY.  
 
* * * * * SOUTHEAST COLORADO * * * * *  
 
METAR K4BM 160630Z AUTO 27006KT 10SM CLR 11/01 A3060 RMK AO2  
METAR K4BM 160612Z AUTO 26005KT 10SM CLR 10/02 A3060 RMK AO2  
METAR K4BM 160554Z AUTO 26004KT 10SM CLR 11/02 A3060 RMK AO2 LTG DSNT  
NW  
 
METAR KAFF 160558Z AUTO 35008KT 10SM CLR 12/10 A3020 RMK AO2 SLP146  
T01230097 10249 20122 58004  
METAR KAFF 160458Z AUTO 34007KT 10SM CLR 13/10 A3020 RMK AO2 SLP146  
T01330103  
 
KCOS 160523Z 1606/1706 VRB06KT P6SM FEW150 SCT250  
FM160900 36008KT P6SM SCT250  
FM161800 06009KT P6SM SCT100 BKN200  
FM162100 13012KT P6SM VCTS SCT090CB BKN150  
FM170100 35010KT P6SM SCT100 BKN150  
METAR KCOS 160554Z 03007KT 10SM FEW250 16/11 A3019 RMK AO2 SLPNO  
T01610111 10250 20161 58006  
METAR KCOS 160454Z 00000KT 10SM FEW160 FEW250 18/11 A3020 RMK AO2 SLPNO  
T01780111  
METAR KCOS 160354Z 24007KT 10SM FEW160 FEW250 18/11 A3021 RMK AO2 SLPNO  
T01780111  
 
METAR KABH 160556Z AUTO 00000KT A3017 RMK AO2 SLPNO 6//// 50000 PNO  
$  
METAR KABH 160456Z AUTO 00000KT A3018 RMK AO2 SLPNO PNO $  
METAR KABH 160356Z AUTO 36003KT A3018 RMK AO2 SLPNO PNO $  
 
METAR KFLY 160635Z AUTO 25004KT 10SM CLR 15/08 A3023 RMK AO2  
T01490078  
METAR KFLY 160615Z AUTO 25005KT 10SM CLR 16/08 A3023 RMK AO2  
T01560080  
METAR KFLY 160555Z AUTO 25005KT 10SM CLR 17/08 A3023 RMK AO2 T01650079  
10217 20150  
 
KFCS 160547Z 1605/1711 31012KT 9999 FEW100 QNH3010INS  
BECMG 1607/1608 VRB06KT 9999 FEW100 QNH3009INS  
BECMG 1610/1611 31012KT 9999 SCT150 QNH3008INS  
BECMG 1618/1619 11015G25KT 9000 -SHRA VCTS SCT100CB QNH3016INS  
BECMG 1623/1624 11012KT 9999 NSW SCT090 QNH3016INS  
BECMG 1706/1707 VRB06KT 9999 FEW050 QNH3021INS TX30/1622Z  
TN15/1612Z  
METAR KFCS 160558Z AUTO 01007KT 10SM CLR 19/09 A3014 RMK AO2 SLP149  
T01910093 10226 20174 57008 $  
METAR KFCS 160458Z AUTO 26007KT 10SM CLR 20/09 A3015 RMK AO2 SLP156  
T02000086 $  
METAR KFCS 160358Z AUTO 24005KT 10SM CLR 18/11 A3017 RMK AO2 SLP168  
T01830114 $  
 
KPUB 160523Z 1606/1706 VRB05KT P6SM SCT200  
FM161000 34008KT P6SM SCT200  
FM161800 09010KT P6SM FEW120 SCT200  
FM162200 10013KT P6SM VCTS SCT100CB BKN160  
FM170200 34015KT P6SM SCT120 BKN150  
METAR KPUB 160553Z AUTO 00000KT 10SM CLR 18/14 A3008 RMK AO2 SLP127  
T01780139 10239 20172 55003  
METAR KPUB 160453Z AUTO 02003KT 10SM CLR 18/14 A3008 RMK AO2 SLP129  
T01830139  
METAR KPUB 160353Z VRB03KT 10SM CLR 19/14 A3009 RMK AO2 SLP134  
T01940139  
 
METAR KTAD 160554Z AUTO 26010KT 10SM CLR 18/14 A3017 RMK AO2 SLP130  
60005 T01780139 10200 20167 58002  
METAR KTAD 160454Z AUTO 27009KT 10SM CLR 17/13 A3017 RMK AO2 SLP136  
T01720133  
METAR KTAD 160354Z AUTO 26011KT 10SM CLR 18/13 A3018 RMK AO2 SLP141  
T01780133  
 
METAR KLHX 160553Z AUTO 29005KT 10SM CLR 19/13 A3005 RMK AO2 SLP116  
T01940128 10283 20189 55002  
METAR KLHX 160453Z AUTO 24010KT 10SM CLR 23/12 A3004 RMK AO2 SLP110  
T02280117  
METAR KLHX 160353Z AUTO 21007KT 10SM CLR 23/12 A3004 RMK AO2 SLP113  
T02330122  
 
METAR KLAA 160553Z AUTO 02004KT 10SM CLR 21/15 A3000 RMK AO2 SLP106  
T02060150 10306 20200 55004  
METAR KLAA 160453Z AUTO 21005KT 10SM CLR 21/15 A2999 RMK AO2 SLP101  
T02110150  
METAR KLAA 160353Z AUTO 17009KT 10SM CLR 22/14 A2998 RMK AO2 SLP101  
T02220144  
 
METAR KSPD 160556Z AUTO 19007KT 21/13 A3008 RMK AO1 SLP120 T02060133  
10272 20189 53001  
METAR KSPD 160456Z AUTO VRB04KT 23/13 A3007 RMK AO1 SLP116 T02280128  
METAR KSPD 160356Z AUTO 19007KT 21/15 A3006 RMK AO1 SLP116 T02110150  
 
SUNRISE/SUNSET FOR 08/16/2018  
BURLINGTON - 06:03:11 MDT / 19:43:29 MDT  
PUEBLO - 06:14:21 MDT / 19:51:06 MDT  
LAMAR - 06:06:38 MDT / 19:42:48 MDT  
 
PUEBLO (KPUX) 08/16/18 06:36 UTC  
RADAR VAD WINDS HEIGHT DIR/SPD(KT)  
18000 FT MSL...013/026  
17000 FT MSL...356/033  
16600 FT MSL...355/033  
16000 FT MSL...357/033  
15000 FT MSL...356/031  
14300 FT MSL...356/028  
14000 FT MSL...356/027  
13000 FT MSL...356/023  
12400 FT MSL...357/022  
12000 FT MSL...354/022  
11000 FT MSL...338/021  
10900 FT MSL...335/021  
10000 FT MSL...336/021  
9700 FT MSL...328/020  
9000 FT MSL...317/014  
8700 FT MSL...317/011  
8000 FT MSL...199/015  
7800 FT MSL...260/011  
7100 FT MSL...238/013  
7000 FT MSL...213/019  
6400 FT MSL...278/011  
6000 FT MSL...243/013  
5900 FT MSL...250/013  
5700 FT MSL...274/010  
 
PUEBLO AVIATION DISCUSSION  
ISSUED AT 0523 UTC THURSDAY, AUGUST 16, 2018  
   
AVIATION
 
(FOR THE 06Z TAFS THROUGH 06Z THURSDAY NIGHT)  
ISSUED AT 1100 PM MDT WED AUG 15 2018  
VFR CONDITIONS EXPECTED AT THE TERMINALS WITH A WIND SHIFT OUT OF  
THE NORTH FOR BOTH KCOS AND KPUB BETWEEN 09-10Z. WINDS WILL SHIFT  
AROUND FROM THE EAST AND SOUTHEAST ON THURSDAY. ANOTHER ROUND OF  
THUNDERSTORMS WILL DEVELOP ACROSS THE MOUNTAINS AFFECTING THE KALS  
TERMINAL AFTER 20Z...AND POTENTIALLY THE KCOS AND KPUB TERMINALS  
AFTER 21-22Z. GUSTY ERRATIC WINDS AND BRIEF HEAVY RAINFALL WILL BE  
THE PRIMARY STORM RISKS. BEST CHANCE FOR -TSRA WILL BE AT  
KALS...WITH MORE UNCERTAINTY FOR BOTH KCOS AND KPUB. WILL  
INTRODUCE A TEMPO FOR KALS...BUT LEAVE BOTH KCOS AND KPUB WITH  
VCTS UNTIL DETAILS BECOME BETTER RESOLVED. -KT  
 
* * * * * NORTHWEST COLORADO * * * * *  
 
METAR KCAG 160553Z AUTO 11004KT 10SM CLR 18/04 A3016 RMK AO2 SLP128  
T01830039 10300 20172 51012  
METAR KCAG 160453Z AUTO 10004KT 10SM CLR 19/05 A3016 RMK AO2 SLP130  
T01940050  
METAR KCAG 160353Z AUTO 30003KT 10SM CLR 21/00 A3014 RMK AO2 SLP128  
T02110000  
 
METAR KHDN 160556Z AUTO 00000KT 10SM CLR 20/M01 A3021 RMK AO2 SLP134  
T02001011 10300 20200 403060089 51011  
METAR KHDN 160456Z AUTO 03003KT 10SM CLR 21/M01 A3020 RMK AO2 SLP136  
T02061011  
METAR KHDN 160356Z AUTO 00000KT 10SM CLR 23/M02 A3019 RMK AO2 SLP130  
T02331017  
 
METAR KSBS 160635Z AUTO 00000KT 10SM CLR 16/01 A3024 RMK AO1  
T01580005  
METAR KSBS 160615Z AUTO 11005KT 10SM CLR 17/00 A3023 RMK AO1  
T01741005  
METAR KSBS 160555Z AUTO 12006KT 10SM CLR 18/M01 A3022 RMK AO1  
T01831007  
 
METAR KC07 160630Z AUTO 29006KT 10SM CLR 13/M02 A3053 RMK AO2  
METAR KC07 160612Z AUTO 31006KT 10SM CLR 13/M02 A3052 RMK AO2  
METAR KC07 160548Z AUTO 30005KT 10SM CLR 13/M02 A3051 RMK AO2  
 
METAR K33V 160635Z AUTO 14008KT 10SM CLR 09/M06 A3033 RMK AO1  
METAR K33V 160615Z AUTO 10006KT 10SM CLR 10/M08 A3033 RMK AO1  
METAR K33V 160555Z AUTO 11005G9KT 10SM CLR 08/M05 A3033 RMK AO1  
 
METAR KEEO 160553Z AUTO 00000KT 10SM CLR 16/M01 A3021 RMK AO2 SLP135  
T01561006 10294 20156 51015  
METAR KEEO 160453Z AUTO 02004KT 10SM CLR 17/M01 A3020 RMK AO2 SLP135  
T01671011  
METAR KEEO 160353Z AUTO 05005KT 10SM CLR 18/M01 A3018 RMK AO2 SLP134  
T01831011  
 
METAR K20V 160630Z AUTO 00000KT 10SM CLR 12/00 A3029 RMK AO2  
METAR K20V 160612Z AUTO 00000KT 10SM CLR 13/M01 A3029 RMK AO2  
METAR K20V 160554Z AUTO 00000KT 10SM CLR 13/M01 A3029 RMK AO2  
 
METAR KGNB 160625Z AUTO 00000KT 10SM CLR 10/M03 A3034 RMK AO2  
T01031027  
METAR KGNB 160610Z AUTO 00000KT 10SM CLR 10/M02 A3034 RMK AO2  
T00951020  
METAR KGNB 160545Z AUTO 08003KT 10SM CLR 12/M03 A3033 RMK AO2  
T01191029  
 
METAR K0CO 160642Z AUTO 30016KT 10SM CLR 07/00 A3066 RMK AO2  
METAR K0CO 160648Z AUTO 30015KT 10SM CLR 07/00 A3066 RMK AO2  
METAR K0CO 160624Z AUTO 31019KT 10SM CLR 07/00 A3065 RMK AO2  
 
KGJT 160520Z 1606/1706 01003KT P6SM FEW150 BKN250  
FM160800 11007KT P6SM OVC250  
FM161500 14006KT P6SM FEW100 SCT200  
FM162000 26008KT P6SM FEW120 SCT250  
FM170400 10005KT P6SM FEW120 SCT200  
METAR KGJT 160553Z AUTO 35006KT 10SM CLR 27/06 A3008 RMK AO2 SLP104  
T02670061 10322 20256 51011  
METAR KGJT 160453Z AUTO 01003KT 10SM CLR 27/04 A3007 RMK AO2 SLP101  
T02670044  
METAR KGJT 160353Z 35004KT 10SM CLR 27/04 A3005 RMK AO2 SLP098  
T02670044  
 
KRIL 160520Z 1606/1706 VRB02KT P6SM BKN250  
FM161900 28007KT P6SM FEW120 SCT250  
FM170200 17005KT P6SM FEW110 SCT150  
METAR KRIL 160553Z AUTO 09003KT 10SM CLR 22/04 A3013 RMK AO2 SLP120  
T02220039 10328 20217 51013  
METAR KRIL 160453Z AUTO 00000KT 10SM CLR 23/04 A3012 RMK AO2 SLP120  
T02330039  
METAR KRIL 160353Z AUTO 06005KT 10SM CLR 24/03 A3011 RMK AO2 SLP120  
T02440033  
 
METAR K5SM 160630Z AUTO 24005KT 10SM BKN100 11/00 A3058 RMK AO2  
METAR K5SM 160612Z AUTO 24005KT 10SM CLR 11/00 A3058 RMK AO2  
METAR K5SM 160606Z AUTO 24005KT 10SM CLR 12/00 A3058 RMK AO2  
 
KEGE 160520Z 1606/1706 09004KT P6SM SCT250  
FM162000 29006KT P6SM FEW110 SCT200  
FM170200 13005KT P6SM FEW090 SCT130 AMD LTD TO CLD VIS AND  
WIND TIL 161300  
METAR KEGE 160556Z AUTO 12006KT 10SM CLR 17/01 A3023 RMK AO2 SLP165  
T01720006 10289 20172 403000100 51015  
METAR KEGE 160456Z AUTO 09008KT 10SM CLR 19/00 A3022 RMK AO2 SLP167  
T01890000  
METAR KEGE 160356Z AUTO 00000KT 10SM CLR 23/01 A3021 RMK AO2 SLP160  
T02280011  
 
KASE 160520Z 1606/1706 20008KT P6SM SCT250  
FM161300 20004KT P6SM SCT090 BKN200  
FM161900 35008KT P6SM SCT140 BKN250  
FM162100 32008KT P6SM VCTS FEW080CB BKN100  
FM170300 16006KT P6SM FEW050 SCT080  
METAR KASE 160553Z AUTO 21007KT 10SM FU CLR 15/02 A3032 RMK AO2 SLP130  
T01500017 10261 20139 51013  
METAR KASE 160453Z AUTO 20008KT 10SM FU CLR 16/02 A3031 RMK AO2 SLP129  
T01560017  
METAR KASE 160353Z AUTO 21008KT 10SM FU CLR 16/02 A3030 RMK AO2 SLP134  
T01560017  
 
METAR KCCU 160630Z AUTO 26010KT 10SM CLR 12/M04 A3064 RMK AO2  
METAR KCCU 160612Z AUTO 26011KT 10SM CLR 12/M04 A3064 RMK AO2  
METAR KCCU 160554Z AUTO 28009KT 260V320 10SM CLR 13/M04 A3064 RMK  
AO2  
 
METAR KLXV 160553Z AUTO 10007KT 10SM CLR 10/M03 A3047 RMK AO2 SLP131  
T01001033 10206 20094 51006  
METAR KLXV 160453Z AUTO 08004KT 10SM CLR 11/M03 A3047 RMK AO2 SLP135  
T01061033  
METAR KLXV 160353Z AUTO 04003KT 10SM CLR 13/M03 A3046 RMK AO2 SLP141  
T01281033  
 
SUNRISE/SUNSET FOR 08/16/2018  
RANGELY - 06:27:51 MDT / 20:10:52 MDT  
GRAND JUNCTION - 06:28:41 MDT / 20:08:14 MDT  
STEAMBOAT SPRINGS - 06:19:20 MDT / 20:03:43 MDT  
 
GRAND JUNCTION (KGJX) 08/16/18 06:37 UTC  
RADAR VAD WINDS HEIGHT DIR/SPD(KT)  
26000 FT MSL...250/017  
25000 FT MSL...246/017  
24000 FT MSL...234/015  
22000 FT MSL...209/007  
21300 FT MSL...193/005  
20000 FT MSL...113/005  
19000 FT MSL...102/008  
19000 FT MSL...102/008  
18000 FT MSL...129/007  
17200 FT MSL...136/009  
17000 FT MSL...137/008  
16000 FT MSL...138/009  
15600 FT MSL...114/009  
15000 FT MSL...353/015  
14000 FT MSL...353/019  
13400 FT MSL...001/013  
13000 FT MSL...357/016  
12600 FT MSL...345/014  
12000 FT MSL...331/017  
11800 FT MSL...330/017  
11100 FT MSL...330/019  
11000 FT MSL...341/019  
10700 FT MSL...333/016  
10400 FT MSL...335/015  
 
GRAND JUNCTION AVIATION DISCUSSION  
ISSUED AT 0524 UTC THURSDAY, AUGUST 16, 2018  
   
AVIATION
 
(FOR THE 06Z TAFS THROUGH 06Z THURSDAY NIGHT)  
ISSUED AT 1122 PM MDT WED AUG 15 2018  
INCREASING MID TO HIGH LEVEL CLOUDINESS WILL SPREAD FROM E.UTAH  
INTO W.COLORADO THROUGH THE OVERNIGHT HOURS. ISOLATED SPRINKLES  
WILL BE POSSIBLE BUT LITTLE IMPACT IS EXPECTED. WINDS WILL REMAIN  
LIGHT AND TIED TO THE TERRAIN OVER THE NEXT 24 HOURS. THE  
EXCEPTION WILL BE NEAR DEVELOPING AFTERNOON SHOWERS AND  
THUNDERSTORMS WHERE OUTFLOW WINDS UP TO 40 MPH WILL BE A THREAT.  
 
* * * * * SOUTHWEST COLORADO * * * * *  
 
METAR KAJZ 160635Z AUTO 02004KT 5SM HZ CLR 22/06 A3014 RMK AO2  
T02240062  
METAR KAJZ 160615Z AUTO 05005KT 5SM HZ CLR 22/07 A3013 RMK AO2  
T02210065  
METAR KAJZ 160555Z AUTO 05003KT 7SM CLR 24/05 A3013 RMK AO2 T02350046  
10322 20235 403290176  
 
KMTJ 160520Z 1606/1706 13006KT P6SM BKN250  
FM161900 31007KT P6SM FEW100 SCT200  
FM170200 14005KT P6SM FEW110 SCT150  
METAR KMTJ 160553Z AUTO 11005KT 10SM CLR 22/07 A3019 RMK AO2 SLP135  
T02170072 10289 20217 51012  
METAR KMTJ 160453Z AUTO 13006KT 10SM CLR 22/07 A3017 RMK AO2 SLP132  
T02170067  
METAR KMTJ 160353Z AUTO 15006KT 10SM CLR 23/07 A3016 RMK AO2 SLP125  
T02280072  
 
METAR KGUC 160556Z AUTO 00000KT 10SM CLR 16/05 A3033 RMK AO2 SLP181  
T01610050 10233 20161 402500078 51012  
METAR KGUC 160456Z AUTO 33004KT 10SM CLR 17/04 A3032 RMK AO2 SLP173  
T01720039  
METAR KGUC 160356Z AUTO 00000KT 10SM CLR 19/06 A3031 RMK AO2 SLP174  
T01890061  
 
METAR K7BM 160630Z AUTO 26009KT 10SM CLR 18/00 A3048 RMK AO2  
METAR K7BM 160612Z AUTO 27006KT 10SM CLR 17/01 A3048 RMK AO2  
METAR K7BM 160548Z AUTO 29003KT 10SM CLR 17/02 A3049 RMK AO2  
 
METAR KAEJ 160635Z AUTO 28003KT 10SM CLR 11/05 A3035 RMK AO2  
T01060051  
METAR KAEJ 160615Z AUTO 29005KT 10SM CLR 11/06 A3035 RMK AO2  
T01050064  
METAR KAEJ 160555Z AUTO 28004KT 10SM CLR 11/07 A3035 RMK AO2 T01080067  
10222 20108 402670095  
 
METAR KANK 160635Z AUTO 00000KT 10SM CLR 17/08 A3039 RMK AO1  
T01680076  
METAR KANK 160615Z AUTO 13004KT 10SM CLR 17/08 A3038 RMK AO1  
T01710076  
METAR KANK 160555Z AUTO 00000KT 10SM CLR 18/08 A3038 RMK AO1 T01790075  
10251 20179 402780118  
 
METAR KMYP 160633Z AUTO 10SM CLR 10/01 A3075 RMK AO2  
METAR KMYP 160612Z AUTO 25015KT 10SM CLR 10/01 A3075 RMK AO2  
METAR KMYP 160550Z AUTO 25013KT 10SM SCT065 10/01 A3075 RMK AO2  
 
METAR KAIB 160635Z AUTO 10006KT 10SM CLR 21/03 RMK AO2  
METAR KAIB 160615Z AUTO 10007KT 10SM CLR 21/03 RMK AO2  
METAR KAIB 160555Z AUTO 11007KT 10SM CLR 21/03 RMK AO2  
 
KTEX 160520Z 1606/1706 VRB04KT P6SM SCT110 BKN200  
FM161800 23006KT P6SM VCTS SCT070CB BKN120  
FM162200 29008KT P6SM VCTS SCT060CB BKN080  
METAR KTEX 160635Z AUTO 15004KT 10SM OVC110 15/06 A3047 RMK AO2  
METAR KTEX 160615Z AUTO 13003KT 10SM OVC110 14/06 A3047 RMK AO2  
METAR KTEX 160555Z AUTO 13004KT 10SM OVC110 15/06 A3047 RMK AO2  
 
METAR KCEZ 160553Z AUTO 12004KT 10SM CLR 18/08 A3020 RMK AO2 SLP148  
T01780083 10294 20178 53015  
METAR KCEZ 160453Z AUTO 08003KT 10SM SCT110 19/09 A3018 RMK AO2 SLP145  
T01890094  
METAR KCEZ 160353Z AUTO 06003KT 10SM CLR 21/08 A3017 RMK AO2 SLP143  
T02060078  
 
KDRO 160520Z 1606/1706 33003KT P6SM FEW110 BKN250  
FM161900 24007KT P6SM BKN250  
FM162300 32008KT P6SM SCT080 BKN140  
FM170200 03007KT P6SM FEW080 SCT120  
METAR KDRO 160553Z AUTO 07004KT 10SM BKN090 OVC110 18/10 A3027 RMK AO2  
SLP160 60000 T01830100 10250 20183 53012  
METAR KDRO 160453Z AUTO 33003KT 10SM CLR 20/09 A3025 RMK AO2 SLP158  
T02000089  
METAR KDRO 160353Z AUTO 00000KT 10SM CLR 21/07 A3023 RMK AO2 SLP157  
T02060067  
 
METAR KPSO 160635Z AUTO 00000KT 10SM OVC110 18/05 A3036 RMK AO2  
T01750052  
METAR KPSO 160615Z AUTO 00000KT 10SM BKN110 18/05 A3036 RMK AO2  
T01810049  
METAR KPSO 160555Z AUTO 00000KT 10SM OVC110 18/05 A3036 RMK AO2  
T01830045 10254 20181 402710092  
 
METAR KCPW 160630Z AUTO 21010G14KT 10SM OVC080 08/03 A3070 RMK AO2  
METAR KCPW 160612Z AUTO 21009KT 10SM OVC080 09/03 A3070 RMK AO2  
METAR KCPW 160548Z AUTO 21008KT 10SM SCT080 SCT110 08/03 A3070 RMK  
AO2  
 
KALS 160523Z 1606/1706 21006KT P6SM VCSH SCT050 BKN110  
FM161000 VRB06KT P6SM SCT120  
FM162000 23010KT P6SM VCTS SCT090CB BKN160  
TEMPO 1620/1624 VRB20G35KT -TSRA BKN090CB  
FM170100 30010KT P6SM SCT120 BKN200  
METAR KALS 160552Z AUTO 02005KT 10SM BKN100 BKN110 16/11 A3033 RMK AO2  
SLP171 60000 T01560106 10222 20156 51006  
METAR KALS 160452Z AUTO 21007KT 10SM FEW080 SCT120 16/10 A3032 RMK AO2  
RAB13E34 SLP167 P0000 T01610100  
METAR KALS 160352Z AUTO 25006KT 10SM FEW050 OVC110 17/11 A3034 RMK AO2  
SLP182 T01720106  
 
SUNRISE/SUNSET FOR 08/16/2018  
VAIL - 06:18:57 MDT / 20:00:24 MDT  
DURANGO - 06:28:56 MDT / 20:02:30 MDT  
ALAMOSA - 06:20:40 MDT / 19:54:49 MDT  
 
GRAND JUNCTION (KGJX) 08/16/18 06:37 UTC  
RADAR VAD WINDS HEIGHT DIR/SPD(KT)  
26000 FT MSL...250/017  
25000 FT MSL...246/017  
24000 FT MSL...234/015  
22000 FT MSL...209/007  
21300 FT MSL...193/005  
20000 FT MSL...113/005  
19000 FT MSL...102/008  
19000 FT MSL...102/008  
18000 FT MSL...129/007  
17200 FT MSL...136/009  
17000 FT MSL...137/008  
16000 FT MSL...138/009  
15600 FT MSL...114/009  
15000 FT MSL...353/015  
14000 FT MSL...353/019  
13400 FT MSL...001/013  
13000 FT MSL...357/016  
12600 FT MSL...345/014  
12000 FT MSL...331/017  
11800 FT MSL...330/017  
11100 FT MSL...330/019  
11000 FT MSL...341/019  
10700 FT MSL...333/016  
10400 FT MSL...335/015  
 
GRAND JUNCTION AVIATION DISCUSSION  
ISSUED AT 0524 UTC THURSDAY, AUGUST 16, 2018  
   
AVIATION
 
(FOR THE 06Z TAFS THROUGH 06Z THURSDAY NIGHT)  
ISSUED AT 1122 PM MDT WED AUG 15 2018  
INCREASING MID TO HIGH LEVEL CLOUDINESS WILL SPREAD FROM E.UTAH  
INTO W.COLORADO THROUGH THE OVERNIGHT HOURS. ISOLATED SPRINKLES  
WILL BE POSSIBLE BUT LITTLE IMPACT IS EXPECTED. WINDS WILL REMAIN  
LIGHT AND TIED TO THE TERRAIN OVER THE NEXT 24 HOURS. THE  
EXCEPTION WILL BE NEAR DEVELOPING AFTERNOON SHOWERS AND  
THUNDERSTORMS WHERE OUTFLOW WINDS UP TO 40 MPH WILL BE A THREAT.  
 
* * * * * ARIZONA * * * * *  
 
KPGA 160539Z 1606/1706 VRB05KT P6SM SCT120  
METAR KPGA 160553Z AUTO 28005KT 10SM CLR 26/09 A3009 RMK AO2 SLP117  
T02610089 10294 20261 51013 TSNO  
METAR KPGA 160453Z AUTO 27007KT 10SM CLR 26/10 A3009 RMK AO2 SLP118  
T02610100 TSNO  
METAR KPGA 160353Z AUTO VRB04KT 10SM CLR 28/09 A3007 RMK AO2 SLP111  
T02780094 TSNO  
 
METAR KRQE 160553Z AUTO 20003KT 10SM BKN110 18/14 A3030 RMK AO2 SLP128  
60000 T01830144 10211 20183 51012  
METAR KRQE 160453Z AUTO 00000KT 10SM BKN090 OVC110 19/14 A3029 RMK AO2  
SLP126 T01940139  
METAR KRQE 160353Z AUTO 00000KT 10SM BKN100 20/13 A3029 RMK AO2 SLP128  
T02000128  
 
FLAGSTAFF (KFSX) 08/16/18 06:40 UTC  
RADAR VAD WINDS HEIGHT DIR/SPD(KT)  
23000 FT MSL...178/023  
22000 FT MSL...168/009  
21300 FT MSL...158/015  
21000 FT MSL...152/016  
20000 FT MSL...147/017  
19000 FT MSL...145/018  
18700 FT MSL...141/018  
18000 FT MSL...144/017  
17000 FT MSL...150/014  
16400 FT MSL...148/015  
16000 FT MSL...140/014  
15000 FT MSL...148/011  
14600 FT MSL...149/010  
14000 FT MSL...156/009  
13100 FT MSL...174/009  
13000 FT MSL...178/010  
12000 FT MSL...175/009  
11900 FT MSL...188/009  
11000 FT MSL...002/018  
10000 FT MSL...350/015  
10000 FT MSL...347/008  
9200 FT MSL...334/015  
9000 FT MSL...328/017  
8500 FT MSL...324/018  
8100 FT MSL...301/019  
8000 FT MSL...306/019  
7800 FT MSL...301/018  
 
FLAGSTAFF AVIATION DISCUSSION  
ISSUED AT 0356 UTC THURSDAY, AUGUST 16, 2018  
   
AVIATION...FOR THE 06Z PACKAGE
 
SCATTERED SHRA/TSRA WILL PERSIST  
THIS EVENING MAINLY SOUTH AND WEST OF KFLG. LOCAL MVFR TO IFR  
CONDITIONS POSSIBLE WITH THE STRONGER STORMS, ALONG WITH ERRATIC  
WIND GUSTS. ANOTHER ROUND OF SCATTERED SHRA/TSRA WILL DEVELOP AFTER  
18Z THURSDAY. VFR CONDITIONS WILL PERSIST OUTSIDE OF THUNDERSTORMS.  
AVIATION DISCUSSION NOT UPDATED FOR TAF AMENDMENTS.  
 
* * * * * UTAH * * * * *  
 
KSLC 160527Z 1606/1712 16009KT P6SM SCT120 BKN200  
FM161900 33008KT P6SM SCT100 BKN140  
FM170400 15008KT P6SM FEW120  
METAR KSLC 160554Z 16003KT 10SM FEW090 BKN140 BKN190 27/08 A3006 RMK AO2  
SLP116 T02670078 10322 20267 51019  
METAR KSLC 160454Z 20004KT 10SM FEW090 BKN140 BKN190 28/08 A3006 RMK AO2  
SLP117 T02780078  
METAR KSLC 160354Z 27008KT 10SM FEW090 BKN140 BKN190 28/08 A3003 RMK AO2  
SLP106 T02830083  
 
KVEL 160520Z 1606/1706 24003KT P6SM SKC  
FM162000 26007KT P6SM FEW130 SCT200  
FM170200 32005KT P6SM FEW110 SCT200  
METAR KVEL 160553Z AUTO 17006KT 10SM CLR 26/02 A3009 RMK AO2 SLP110  
60000 T02610017 10333 20228 53011  
METAR KVEL 160453Z AUTO 24003KT 10SM CLR 23/04 A3008 RMK AO2 SLP113  
T02330044  
METAR KVEL 160353Z AUTO 35005KT 10SM CLR 27/01 A3006 RMK AO2 SLP104  
T02670011  
 
METAR KPUC 160553Z AUTO 33005KT 10SM CLR 23/04 A3017 RMK AO2 SLP110  
T02280039 10317 20222 51011  
METAR KPUC 160453Z AUTO 05005KT 10SM BKN120 24/04 A3017 RMK AO2 SLP107  
T02390044  
METAR KPUC 160353Z AUTO 02007KT 10SM CLR 23/04 A3016 RMK AO2 SLP111  
T02330039  
 
KCNY 160520Z 1606/1706 10003KT P6SM FEW130 BKN200  
FM162000 33007KT P6SM FEW250  
METAR KCNY 160553Z AUTO 27003KT 10SM CLR 25/04 A3005 RMK AO2 SLP106  
T02500044 10322 20250 51008  
METAR KCNY 160453Z AUTO 00000KT 10SM CLR 27/04 A3004 RMK AO2 SLP105  
T02670044  
METAR KCNY 160353Z AUTO 00000KT 10SM CLR 27/05 A3003 RMK AO2 SLP100  
T02720050  
 
SALT LAKE CITY (KMTX) 08/16/18 06:41 UTC  
RADAR VAD WINDS HEIGHT DIR/SPD(KT)  
14000 FT MSL...358/022  
13000 FT MSL...005/024  
12100 FT MSL...336/029  
12000 FT MSL...347/023  
11000 FT MSL...328/022  
10900 FT MSL...326/021  
10000 FT MSL...316/023  
9900 FT MSL...312/023  
9100 FT MSL...305/023  
9000 FT MSL...305/024  
8300 FT MSL...291/022  
8000 FT MSL...291/022  
7600 FT MSL...287/021  
7000 FT MSL...256/018  
 
SALT LAKE CITY AVIATION DISCUSSION  
ISSUED AT 0332 UTC THURSDAY, AUGUST 16, 2018  
   
AVIATION
 
LIGHT AND VARIABLE WINDS WILL BECOME SOUTHERLY AT THE  
SLC TERMINAL BETWEEN 0330Z AND 0430Z.  
 
* * * * * WYOMING * * * * *  
 
KEVW 160527Z 1606/1706 18006KT P6SM SCT120 BKN180  
FM161800 29010KT P6SM VCSH SCT090 BKN110  
FM170200 24007KT P6SM SCT110=  
METAR KEVW 160553Z AUTO 27004KT 10SM SCT110 21/02 A3027 RMK AO2 SLP136  
T02060022 10261 20189 51012  
METAR KEVW 160453Z AUTO 24006KT 10SM SCT120 21/03 A3027 RMK AO2 SLP138  
T02060028  
METAR KEVW 160353Z AUTO 26009KT 10SM FEW120 21/02 A3025 RMK AO2 SLP136  
T02060022  
 
KRKS 160522Z 1606/1706 VRB06KT P6SM SKC  
FM161900 30007KT P6SM SCT130  
FM170500 VRB06KT P6SM SCT130 BKN200  
METAR KRKS 160554Z AUTO 33006KT 10SM CLR 18/M09 A3021 RMK AO2 SLP136  
T01781094 10300 20172 51014  
METAR KRKS 160454Z AUTO 30007KT 10SM CLR 20/M09 A3020 RMK AO2 SLP134  
T02001089  
METAR KRKS 160354Z AUTO 26009KT 10SM CLR 22/M11 A3018 RMK AO2 SLP130  
T02221106  
 
KRWL 160520Z 1606/1706 04009KT P6SM SKC  
FM161600 28006KT P6SM SKC  
FM162200 32009KT P6SM FEW250  
FM170000 36006KT P6SM FEW250  
FM170500 07005KT P6SM FEW200  
METAR KRWL 160553Z AUTO 03007KT 10SM CLR 15/M03 A3021 RMK AO2 SLP134  
T01501028 10294 20133 51013  
METAR KRWL 160453Z AUTO 04003KT 10SM CLR 14/M03 A3020 RMK AO2 SLP133  
T01441028  
METAR KRWL 160353Z AUTO 04009KT 10SM CLR 19/M03 A3018 RMK AO2 SLP125  
T01891033  
 
KLAR 160520Z 1606/1706 13008KT P6SM SKC  
FM161500 15004KT P6SM FEW250  
FM162200 04009KT P6SM FEW250  
FM170400 13007KT P6SM FEW250  
METAR KLAR 160553Z AUTO 13008KT 10SM CLR 15/08 A3024 RMK AO2 SLP126  
T01500078 10278 20144 51007  
METAR KLAR 160453Z AUTO 17007KT 10SM CLR 14/09 A3024 RMK AO2 SLP128  
T01440089  
METAR KLAR 160353Z AUTO 13008KT 10SM CLR 16/09 A3023 RMK AO2 SLP131  
T01610094  
 
KCYS 160520Z 1606/1706 09004KT P6SM SKC  
FM161000 27004KT 4SM BR FEW200  
FM161400 13006KT P6SM FEW250  
FM162100 10007KT P6SM FEW250  
FM170500 14005KT P6SM FEW200  
METAR KCYS 160553Z AUTO 00000KT 10SM CLR 17/11 A3019 RMK AO2 SLP135  
T01670106 10250 20156 51009  
METAR KCYS 160453Z AUTO 00000KT 10SM CLR 18/10 A3019 RMK AO2 SLP135  
T01830100  
METAR KCYS 160353Z 09004KT 10SM CLR 18/11 A3017 RMK AO2 SLP134  
T01780106  
 
RIVERTON (KRIW) 08/16/18 06:34 UTC  
RADAR VAD WINDS HEIGHT DIR/SPD(KT)  
16000 FT MSL...339/023  
15000 FT MSL...324/027  
14600 FT MSL...323/027  
14000 FT MSL...325/026  
13000 FT MSL...322/025  
12700 FT MSL...320/024  
12000 FT MSL...318/023  
11200 FT MSL...316/019  
11000 FT MSL...327/020  
10000 FT MSL...345/020  
10000 FT MSL...348/021  
9000 FT MSL...359/020  
8900 FT MSL...001/020  
8100 FT MSL...010/017  
8000 FT MSL...012/016  
7300 FT MSL...039/012  
7000 FT MSL...102/020  
6700 FT MSL...052/014  
6200 FT MSL...105/016  
6000 FT MSL...084/013  
6000 FT MSL...094/013  
 
CHEYENNE (KCYS) 08/16/18 06:31 UTC  
RADAR VAD WINDS HEIGHT DIR/SPD(KT)  
16000 FT MSL...324/044  
15000 FT MSL...322/043  
14100 FT MSL...324/041  
14000 FT MSL...325/040  
13000 FT MSL...326/037  
12400 FT MSL...326/032  
12000 FT MSL...324/028  
11000 FT MSL...283/013  
10700 FT MSL...273/012  
10000 FT MSL...327/013  
9000 FT MSL...347/016  
8900 FT MSL...348/017  
8000 FT MSL...357/017  
7200 FT MSL...007/019  
7100 FT MSL...019/015  
7000 FT MSL...009/018  
6500 FT MSL...004/016  
 
RIVERTON AVIATION DISCUSSION  
ISSUED AT 0530 UTC THURSDAY, AUGUST 16, 2018  
   
AVIATION
 
(FOR THE 06Z TAFS THROUGH 06Z THURSDAY NIGHT)  
ISSUED AT 1128 PM MDT WED AUG 15 2018  
VFR CONDITIONS WILL PREVAIL THROUGH 12Z FRIDAY. SMOKE FROM LARGE  
WILDFIRES ACROSS SW MONTANA AND CENTRAL IDAHO WILL PRODUCE HAZY  
SKIES ACROSS THE AREA, BUT VISIBILITIES ARE EXPECTED TO REMAIN P6SM.  
 
CHEYENNE AVIATION DISCUSSION  
ISSUED AT 0452 UTC THURSDAY, AUGUST 16, 2018  
   
AVIATION
 
(FOR THE 06Z TAFS THROUGH 06Z THURSDAY NIGHT)  
ISSUED AT 1049 PM MDT WED AUG 15 2018  
A MIX OF MVFR AND IFR CONDITIONS LIKELY TONIGHT AS LOW STRATUS  
AND FOG DEVELOP BEHIND A WEAK COLD FRONT. THE PANHANDLE IN  
PARTICULAR WILL SEE IFR CONDITIONS DEVELOP AS A SHALLOW FOG LAYER  
FORMS BETWEEN 10 AND 12Z. AIA SNY AND CDR SHOW THE BEST  
SIGNATURES WITH LOW CIGS AND PATCHY DENSE FOG. EXPECT THE FOG TO  
DISSIPATE BY 14Z WITH VFR CONDITIONS EXPECTED FOR TOMORROW AT ALL  
TERMINALS.  
 
* * * * * NEBRASKA * * * * *  
 
METAR KIBM 160635Z AUTO 00000KT 10SM CLR 14/13 A3012 RMK AO2  
T01410131  
METAR KIBM 160615Z AUTO 11004KT 10SM CLR 15/13 A3013 RMK AO2  
T01460131  
METAR KIBM 160555Z AUTO 05004KT 10SM CLR 15/13 A3012 RMK AO2 T01490131  
10266 20149  
 
KSNY 160520Z 1606/1706 07010KT P6SM SKC  
FM161000 VRB04KT 4SM BR FEW130  
FM161100 34005KT 1/2SM FG FEW008  
FM161400 35005KT P6SM FEW200  
FM161900 04005KT P6SM FEW250  
METAR KSNY 160553Z AUTO 07008KT 10SM CLR 16/14 A3009 RMK AO2 SLP139  
T01560139 10289 20150 50001  
METAR KSNY 160453Z AUTO 09008KT 10SM CLR 17/14 A3009 RMK AO2 SLP138  
T01670144  
METAR KSNY 160353Z AUTO 07010KT 10SM CLR 18/14 A3008 RMK AO2 SLP138  
T01780139  
 
METAR KOGA 160635Z AUTO 06003KT 10SM CLR 17/17 A3003 RMK AO2  
T01740168  
METAR KOGA 160615Z AUTO 07003KT 10SM CLR 18/17 A3003 RMK AO2  
T01780172  
METAR KOGA 160555Z AUTO 08006KT 10SM CLR 18/17 A3003 RMK AO2 T01820173  
10265 20182  
 
METAR KIML 160553Z AUTO 05005KT 10SM CLR 18/17 A3001 RMK AO2 SLP131  
T01780167 10300 20178 53008  
METAR KIML 160453Z AUTO 12009KT 10SM CLR 21/16 A2999 RMK AO2 SLP124  
T02060161  
METAR KIML 160353Z AUTO 11010KT 10SM CLR 21/16 A2999 RMK AO2 SLP125  
T02110161  
 
KMCK 160520Z 1606/1706 06005KT P6SM SCT250  
TEMPO 1610/1614 1SM BR BKN015  
METAR KMCK 160553Z AUTO 08004KT 8SM CLR 19/17 A2997 RMK AO2 SLP126  
T01890172 10283 20189 403060122 55009  
METAR KMCK 160453Z AUTO 11008KT 9SM CLR 21/18 A2997 RMK AO2 SLP125  
T02060178  
METAR KMCK 160353Z AUTO 11006KT 8SM CLR 20/18 A2999 RMK AO2 SLP134  
T02000183  
 
NORTH PLATTE (KLNX) 08/16/18 06:38 UTC  
RADAR VAD WINDS HEIGHT DIR/SPD(KT)  
25000 FT MSL...295/027  
20000 FT MSL...298/032  
19000 FT MSL...277/046  
17000 FT MSL...276/040  
16000 FT MSL...270/045  
15000 FT MSL...273/031  
14000 FT MSL...306/032  
13000 FT MSL...297/024  
12000 FT MSL...311/022  
12000 FT MSL...297/020  
11000 FT MSL...283/021  
10200 FT MSL...284/020  
10000 FT MSL...283/021  
9000 FT MSL...278/020  
8700 FT MSL...269/019  
8000 FT MSL...254/022  
7500 FT MSL...241/020  
7000 FT MSL...230/021  
6400 FT MSL...215/019  
6000 FT MSL...207/019  
5600 FT MSL...186/011  
5000 FT MSL...136/013  
4800 FT MSL...086/013  
4100 FT MSL...066/015  
4000 FT MSL...076/018  
3700 FT MSL...064/018  
3400 FT MSL...047/014  
 
NORTH PLATTE AVIATION DISCUSSION  
ISSUED AT 0457 UTC THURSDAY, AUGUST 16, 2018  
   
AVIATION
 
(FOR THE 06Z TAFS THROUGH 06Z THURSDAY NIGHT)  
ISSUED AT 1155 PM CDT WED AUG 15 2018  
FOR THE KLBF TERMINAL: FOG IS EXPECTED TO DEVELOP OVERNIGHT IN THE  
PLATTE RIVER VALLEY. VISIBILITIES MAY DIP UNDER A MILE FROM 10Z TO  
14Z OVERNIGHT INTO EARLY THURSDAY. LOOK FOR VISBYS/CEILINGS TO  
IMPROVE BY MID MORNING WITH VFR CONDS EXPECTED THEREAFTER. FOR THE  
KVTN TERMINAL: EXPECT PATCHY FOG TO DEVELOP OVERNIGHT WITH  
VISIBILITIES DOWN TO AROUND 1 MILE FROM 10Z TO 14Z WITH CEILINGS  
AROUND 1000 FT AGL. VISIBILITIES AND CEILINGS WILL IMPROVE BY LATE  
MORNING WITH VFR CONDS EXPECTED AFTER 18Z THURSDAY.  
 
* * * * * KANSAS * * * * *  
 
KGLD 160520Z 1606/1706 18009KT P6SM FEW250  
FM161400 36011KT P6SM FEW250  
METAR KGLD 160553Z AUTO 17008KT 10SM CLR 19/16 A3002 RMK AO2 SLP118  
T01940156 10300 20194 51006  
METAR KGLD 160453Z AUTO 17006KT 10SM CLR 21/16 A3001 RMK AO2 SLP118  
T02110156  
METAR KGLD 160353Z AUTO 16008KT 10SM CLR 22/16 A3001 RMK AO2 SLP116  
T02220156  
 
KGCK 160520Z 1606/1706 15008KT P6SM BKN250  
FM160900 18005KT P6SM SCT250  
FM161500 16008KT P6SM SKC  
FM161800 16008KT P6SM SCT050  
FM170300 06010G20KT P6SM BKN150  
METAR KGCK 160554Z AUTO 15008KT 10SM CLR 21/17 A3001 RMK AO2 SLP128  
T02060172 10278 20206 403060128 53003  
METAR KGCK 160454Z AUTO 14009KT 10SM CLR 22/17 A2999 RMK AO2 SLP121  
T02170167  
METAR KGCK 160354Z AUTO 15009KT 10SM CLR 22/17 A2999 RMK AO2 SLP124  
T02170167  
 
METAR KLBL 160556Z AUTO 15007KT 10SM CLR 22/19 A3001 RMK AO2 SLP132  
T02170189 10283 20217 402890150 55002  
METAR KLBL 160456Z AUTO 15008KT 10SM CLR 22/18 A3000 RMK AO2 SLP131  
T02220183  
METAR KLBL 160356Z AUTO 13011KT 10SM CLR 23/18 A3000 RMK AO2 SLP130  
T02280183  
 
METAR KEHA 160635Z AUTO 21011KT 10SM CLR 23/20 A3003 RMK AO2 LTG DSNT SE  
T02330202  
METAR KEHA 160615Z AUTO 19008KT 10SM CLR 23/20 A3004 RMK AO2 LTG DSNT SE  
T02300198  
METAR KEHA 160555Z AUTO 19011KT 10SM CLR 23/19 A3005 RMK AO2 LTG DSNT SE  
THRU SW T02270190 10295 20217 403230160  
 
GOODLAND (KGLD) 08/16/18 06:37 UTC  
RADAR VAD WINDS HEIGHT DIR/SPD(KT)  
15000 FT MSL...315/031  
14000 FT MSL...313/029  
13000 FT MSL...324/025  
12000 FT MSL...333/020  
11600 FT MSL...322/020  
11000 FT MSL...336/014  
10000 FT MSL...335/016  
9900 FT MSL...324/012  
9000 FT MSL...324/016  
8200 FT MSL...316/013  
8000 FT MSL...309/015  
7000 FT MSL...300/015  
6500 FT MSL...294/016  
6000 FT MSL...285/015  
5000 FT MSL...208/028  
4700 FT MSL...203/023  
4600 FT MSL...196/028  
4000 FT MSL...178/016  
4000 FT MSL...180/016  
 
DODGE CITY (KDDC) 08/16/18 06:37 UTC  
RADAR VAD WINDS HEIGHT DIR/SPD(KT)  
15000 FT MSL...314/010  
14000 FT MSL...353/014  
13900 FT MSL...356/014  
13000 FT MSL...333/021  
12000 FT MSL...355/016  
11600 FT MSL...343/008  
11000 FT MSL...308/016  
10000 FT MSL...300/019  
9700 FT MSL...301/019  
9000 FT MSL...281/019  
8200 FT MSL...266/020  
8000 FT MSL...265/021  
7000 FT MSL...244/021  
7000 FT MSL...242/022  
6000 FT MSL...225/024  
6000 FT MSL...226/024  
5100 FT MSL...211/021  
5000 FT MSL...207/021  
4400 FT MSL...184/017  
4000 FT MSL...182/023  
3700 FT MSL...155/012  
3200 FT MSL...148/020  
3000 FT MSL...139/017  
3000 FT MSL...139/017  
 
GOODLAND AVIATION DISCUSSION  
ISSUED AT 0513 UTC THURSDAY, AUGUST 16, 2018  
   
AVIATION
 
(FOR THE 06Z TAFS THROUGH 06Z THURSDAY NIGHT)  
ISSUED AT 1111 PM MDT WED AUG 15 2018  
WEAK FRONTAL BOUNDARY WILL MOVE THROUGH THE REGION  
OVERNIGHT/THURSDAY MORNING WITH SURFACE WINDS SHIFTING TO  
NORTHERLY. EXPECTING AREAS OF FOG TO DEVELOP BEHIND THE FRONT,  
WITH KMCK EXPERIENCING A BRIEF PERIOD OF REDUCED VISIBILITY AROUND  
SUNRISE. OTHERWISE, VFR EXPECTED AT BOTH KGLD AND KMCK.  
 
DODGE CITY AVIATION DISCUSSION  
ISSUED AT 0500 UTC THURSDAY, AUGUST 16, 2018  
   
AVIATION
 
(FOR THE 06Z TAFS THROUGH 06Z THURSDAY NIGHT)  
ISSUED AT 1100 PM CDT WED AUG 15 2018  
VFR WILL CONTINUE THROUGH THIS TAF FORECAST CYCLE. LIGHT WINDS AND  
DIMINISHING CIRRUS ANVIL DEBRIS WILL PREVAIL THROUGH SUNRISE.  
DAYLIGHT THURSDAY, LIGHT S/SE WINDS OF 8-10 KTS WILL PREVAIL,  
WITH NOTHING MORE THAN SOME SCATTERED CUMULUS. 00Z NAM FORECASTS A  
COLD FRONT TO BE NEAR HYS AROUND 00Z FRI, WITH CONVECTION  
DEVELOPING IN THE VICINITY OF HYS DURING THE 03-06Z FRI TIME  
RANGE. MENTIONED VCTS/CB AT HYS, BUT KEPT THE OTHER TAFS DRY WITH  
ACTIVITY LIKELY REMAINING EAST OF DDC. A NE WIND SHIFT WILL  
ACCOMPANY THE FRONTAL PASSAGE AT HYS/GCK/DDC BY 03Z FRI, WITH THE  
NELY WIND SHIFT NOT EXPECTED TO REACH LBL UNTIL 09-12Z FRI.  
 
* * * * * TEXAS/OKLAHOMA * * * * *  
 
KGUY 160520Z 1606/1706 VRB06KT P6SM SCT060 BKN250  
TEMPO 1606/1608 VRB20G35KT 6SM TSRA BKN080CB=  
SPECI KGUY 160620Z AUTO 18011G22KT 10SM CLR 22/17 A3000 RMK AO2 LTG DSNT  
SE-SW RAE03 P0000 T02220167  
METAR KGUY 160553Z AUTO 22010KT 10SM VCTS -RA FEW060 FEW070 OVC095 22/19  
A3003 RMK AO2 WSHFT 0514 LTG DSNT S AND SW RAB26 SLP122 P0000  
60000 T02170189 10306 20217 403220144 51008  
SPECI KGUY 160550Z AUTO 22009KT 10SM VCTS -RA FEW070 OVC095 22/19 A3003  
RMK AO2 WSHFT 0514 LTG DSNT S AND SW RAB26 P0000  
 
KDHT 160520Z 1606/1706 22010KT P6SM SCT060 BKN250  
FM162100 18010KT P6SM SCT250  
FM170300 VRB06KT P6SM BKN150  
METAR KDHT 160553Z AUTO 20013KT 10SM -RA BKN120 19/17 A3014 RMK AO2 LTG  
DSNT SW AND W RAB02 SLP153 P0002 60002 T01890167 10311 20189  
403330172 51024  
METAR KDHT 160453Z AUTO 22013G23KT 10SM FEW027 BKN100 21/15 A3013 RMK  
AO2 LTG DSNT ALQDS SLP148 T02060150  
SPECI KDHT 160427Z AUTO 18013G22KT 10SM SCT100 21/17 A3009 RMK AO2 LTG  
DSNT ALQDS T02060172  
 
AMARILLO (KAMA) 08/16/18 06:41 UTC  
RADAR VAD WINDS HEIGHT DIR/SPD(KT)  
40000 FT MSL...267/035  
36600 FT MSL...270/032  
35000 FT MSL...268/030  
30300 FT MSL...265/021  
30000 FT MSL...264/020  
28000 FT MSL...263/018  
26000 FT MSL...247/017  
25100 FT MSL...257/013  
25000 FT MSL...239/018  
24000 FT MSL...244/018  
22000 FT MSL...259/011  
20900 FT MSL...248/010  
20000 FT MSL...223/012  
19000 FT MSL...190/008  
18000 FT MSL...161/012  
17500 FT MSL...156/013  
17000 FT MSL...149/014  
16000 FT MSL...145/015  
15000 FT MSL...146/016  
14900 FT MSL...147/015  
14000 FT MSL...146/016  
13000 FT MSL...154/013  
12600 FT MSL...157/014  
12000 FT MSL...168/015  
11000 FT MSL...197/013  
10800 FT MSL...200/014  
10000 FT MSL...213/019  
9200 FT MSL...229/022  
9000 FT MSL...237/022  
8000 FT MSL...244/027  
8000 FT MSL...256/026  
7000 FT MSL...268/029  
7000 FT MSL...262/028  
6200 FT MSL...274/028  
6000 FT MSL...278/028  
5400 FT MSL...283/028  
5000 FT MSL...288/032  
4700 FT MSL...287/031  
4300 FT MSL...283/034  
4000 FT MSL...281/028  
4000 FT MSL...282/027  
 
AMARILLO AVIATION DISCUSSION  
ISSUED AT 0526 UTC THURSDAY, AUGUST 16, 2018  
   
AVIATION
 
 
FOR THE 06Z TAFS:  
MAIN CONCERN FOR THIS CYCLE WILL BE THE THUNDERSTORMS TO BEGIN THE  
PERIOD. THIS WILL MAINLY IMPACT KAMA AND KGUY AS THUNDERSTORMS  
HAVE NOW PUSHED SOUTH AND EAST OF KDHT. THAT BEING SAID, WIND  
SPEEDS MAY BE ERRATIC AT TIMES AND VARY IN DIRECTION, AND THERE  
COULD BE SOME VISIBILITY RESTRICTION IN THE HEAVIER RAINFALL  
RATES. OTHERWISE, VFR CONDITIONS ARE EXPECTED AFTER THE  
THUNDERSTORM THREAT HAS DIMINISHED. THUNDERSTORM CHANCES RETURN  
LATER TODAY AND TONIGHT, BUT ITS TOO EARLY TO SAY IF THEY WILL  
DIRECTLY IMPACT THE TERMINALS. WE WILL HAVE TO SEE HOW THESE  
THUNDERSTORMS PLAY OUT AND HOW WELL THE ATMOSPHERE RECOVERS FOR  
ONGOING CONVECTION THIS MORNING.  
GUERRERO  
 
* * * * * NEW MEXICO * * * * *  
 
KFMN 160535Z 1606/1706 09006KT P6SM BKN140  
FM161700 24006KT P6SM FEW070 SCT150  
FM162100 28011KT P6SM SCT070 BKN150  
METAR KFMN 160553Z AUTO 25006KT 10SM CLR 23/09 A3017 RMK AO2 SLP146  
T02280089 10294 20228 51016  
METAR KFMN 160453Z AUTO 26006KT 10SM FEW120 24/07 A3016 RMK AO2 SLP146  
T02440072  
METAR KFMN 160353Z 19007KT 10SM CLR 26/07 A3014 RMK AO2 SLP139  
T02610067  
 
METAR KSKX 160556Z AUTO 02004KT 10SM CLR 18/08 A3034 RMK AO2 SLPNO  
T01780083 10244 20167 53010 $  
METAR KSKX 160456Z AUTO 00000KT 10SM CLR 18/07 A3033 RMK AO2 SLPNO  
T01780067 $  
METAR KSKX 160356Z AUTO 07004KT 10SM FEW120 21/08 A3033 RMK AO2 SLPNO  
T02060078 $  
 
KLVS 160535Z 1606/1706 VRB06KT P6SM SCT120  
FM161600 17007KT P6SM FEW070 SCT140  
FM162000 28008KT P6SM VCTS SCT070CB BKN120  
FM170000 35010KT P6SM BKN080  
METAR KLVS 160553Z AUTO 02005KT 10SM FEW080 SCT100 16/13 A3031 RMK AO2  
SLP160 60021 T01560133 10228 20144 53003  
METAR KLVS 160453Z AUTO 36004KT 10SM CLR 16/13 A3030 RMK AO2 SLP163  
T01560128  
METAR KLVS 160353Z AUTO 08007KT 10SM CLR 16/12 A3030 RMK AO2 SLP162  
T01560122  
 
METAR KRTN 160553Z AUTO 05005KT 10SM CLR 17/13 A3024 RMK AO2 SLP149  
60008 T01670133 10239 20161 51007  
METAR KRTN 160453Z AUTO 01007KT 10SM CLR 17/13 A3023 RMK AO2 SLP148  
T01720128  
METAR KRTN 160353Z AUTO 28005KT 10SM CLR 17/13 A3023 RMK AO2 SLP156  
T01720133  
 
METAR KCAO 160555Z AUTO 22009KT 10SM CLR 19/16 A3015 RMK AO2 LTG DSNT S  
SLP123 60000 T01890161 10244 20189 50012 $  
METAR KCAO 160455Z AUTO 17015KT 10SM CLR 19/16 A3016 RMK AO2 PK WND  
14028/0443 LTG DSNT S AND SW SLP141 T01940161  
METAR KCAO 160355Z AUTO 00000KT 10SM SCT120 21/13 A3014 RMK AO2 SLP140  
T02110133  
 
ALBUQUERQUE (KABX) 08/16/18 06:28 UTC  
RADAR VAD WINDS HEIGHT DIR/SPD(KT)  
25000 FT MSL...235/018  
24000 FT MSL...233/016  
22000 FT MSL...237/008  
20000 FT MSL...236/005  
19000 FT MSL...224/005  
18000 FT MSL...215/005  
17000 FT MSL...214/004  
15000 FT MSL...046/005  
14000 FT MSL...027/013  
13800 FT MSL...026/013  
13000 FT MSL...030/014  
12200 FT MSL...034/015  
12000 FT MSL...032/014  
11000 FT MSL...004/013  
10400 FT MSL...013/010  
10000 FT MSL...337/010  
9000 FT MSL...309/007  
8700 FT MSL...300/008  
8000 FT MSL...262/007  
7000 FT MSL...277/005  
7000 FT MSL...271/005  
6900 FT MSL...263/005  
6300 FT MSL...349/008  
 
ALBUQUERQUE AVIATION DISCUSSION  
ISSUED AT 0546 UTC THURSDAY, AUGUST 16, 2018  
   
AVIATION
 
 
06Z TAF CYCLE  
A CLUSTER OF TSTMS REMAIN OVER SOUTHERN QUAY AND CURRY COUNTIES THIS  
HOUR, EXPECT VCTS FOR KCVS AND KCVN FOR THE NEXT COUPLE OF HOURS  
BEFORE THESE STORMS MOVE INTO TX. LIGHT -RA ALSO REMAINS AT KTCC AND  
WILL GRADUALLY SUBSIDE OVER THE NEXT HOUR TO TWO HOURS. ELSEWHERE, A  
FEW LIGHT SHOWERS ARE ALSO MOVING UP THE RGV TOWARD KABQ, KAEG, KONM,  
AND KE80. BKN SKIES AND PERHAPS A FEW SPRINKLES COULD RESULT FROM  
THESE OVER THE NEXT HOUR TO TWO HOURS. OTHERWISE, THE NIGHT IS  
WINDING DOWN AND WILL SEE GRADUALLY CLEARING SKIES AND LIGHT TERRAIN  
DOMINATED WIND THROUGH THURSDAY MORNING. LIGHT STEERING FLOW REMAINS  
THURSDAY AGAIN RESULTING IN SLOW MOVING STORMS FOCUSING OVER THE HIGH  
TERRAIN FIRST BEFORE BECOMING OUTFLOW DOMINATED OVER LOWER ELEVATIONS  
IN THE EVENING PAST 23Z. EXPECT MVFR VIS WITH ANY DOWNPOUR, PERHAPS  
EVEN IFR CONDITIONS WITH THE STRONGEST STORMS.  
24  
 
* * * * * WINDS AND TEMPERATURES ALOFT FORECASTS * * * * *  
 
DATA BASED ON 160000Z  
VALID 160600Z FOR USE 0500-0900Z. TEMPS NEG ABV 24000  
FT 3000 6000 9000 12000 18000 24000 30000 34000 39000  
SLC 9900 3207+18 3406+10 1905-09 2107-20 271735 273242 262449  
BCE 3010+09 9900-07 2413-19 242133 253239 263650  
LND 0405+16 3105+09 2810-09 2915-19 281636 282144 283648  
RKS 0308 2910+11 2907-08 2814-20 282336 272942 283049  
GJT 2805+18 9900+10 1406-07 2415-19 263034 263440 263350  
FMN 2506+18 2306+10 2412-07 2413-17 252432 252741 262551  
ABQ 2105+18 2209+10 2306-06 2510-17 261931 273041 272752  
MBW 1708 3015+10 3222-08 3124-20 302436 303344 294648  
DEN 9900+17 2807+10 3121-06 2928-18 284035 274143 284450  
PUB 2114+17 2710+11 3014-07 2825-17 263833 263942 273751  
ALS 2809+10 2818-06 2719-17 252932 242842 273151  
TCC 3114 2313+14 2322+08 2319-05 2314-15 271631 292342 311854  
BFF 0906 3008+13 3022+08 3131-09 3140-20 314536 304945 305748  
GLD 2129 2519+16 2514+10 3223-08 2929-19 285735 276544 286350  
GCK 2222+22 2613+16 9900+10 3216-07 3020-19 285633 276343 285751  
GAG 2321+22 2716+15 2510+08 3314-07 2911-17 292831 284442 284553  
AMA 2026 2420+16 2810+09 9900-07 2518-16 282230 292641 304454  
---------------------------------------------------------------------  
 
DATA BASED ON 160000Z  
VALID 161200Z FOR USE 0900-1800Z. TEMPS NEG ABV 24000  
FT 3000 6000 9000 12000 18000 24000 30000 34000 39000  
SLC 9900 9900+17 9900+09 1709-09 2412-19 262235 273841 272250  
BCE 3407+09 2508-07 2415-20 262632 263439 262950  
LND 9900+15 3006+08 2813-07 2714-20 292137 282544 273349  
RKS 9900 3012+10 2813-08 2616-20 291836 293043 273449  
GJT 9900+17 9900+09 2608-07 2718-19 282634 273640 283451  
FMN 9900+17 2606+10 2517-07 2614-18 262732 273340 282951  
ABQ 2406+17 2405+09 9900-06 2412-17 262732 283741 293552  
MBW 3314 3216+09 3015-07 3015-20 301936 292844 284149  
DEN 3111+18 3315+11 2814-07 2921-20 283235 284142 284750  
PUB 3308+18 3508+11 2909-08 2921-19 273534 273941 284451  
ALS 3011+10 3011-07 2717-18 272733 273741 293751  
TCC 2114 2420+17 2816+10 3216-07 2618-18 272032 282742 302952  
BFF 0410 3212+13 3119+07 3128-08 3228-19 313636 304045 305248  
GLD 2621 2814+16 2714+10 2821-08 3031-19 294735 285242 294950  
GCK 2615+21 2411+16 2410+10 2817-07 3022-18 274433 265143 295052  
GAG 2520+22 2519+15 2205+08 2509-07 2813-18 271932 283543 304152  
AMA 2420 2521+16 2420+10 2223-07 2728-17 292532 272442 283252  
---------------------------------------------------------------------  
 
DATA BASED ON 160000Z  
VALID 170000Z FOR USE 1800-0500Z. TEMPS NEG ABV 24000  
FT 3000 6000 9000 12000 18000 24000 30000 34000 39000  
SLC 9900 9900+18 9900+10 2108-08 2317-19 243334 245442 245452  
BCE 3211+11 1506-06 2215-18 242832 243841 254152  
LND 9900+17 9900+10 2711-09 2616-20 263135 274542 264751  
RKS 9900 9900+12 2608-08 2615-20 263034 274642 264651  
GJT 3405+20 9900+12 2508-06 2513-18 282533 273541 263452  
FMN 2705+21 9900+12 2608-06 2516-17 292031 282740 282652  
ABQ 9900+19 3105+11 9900-05 2912-16 312231 303640 302352  
MBW 0205 9900+10 2816-07 2721-20 283036 294641 284250  
DEN 0906+18 9900+10 3018-08 2918-19 293634 304540 304251  
PUB 1008+20 1007+11 3212-07 3018-18 293234 314140 304051  
ALS 9900+11 2912-06 2816-17 292633 303339 293151  
TCC 2109 2209+19 2209+11 3107-06 2916-17 312532 323140 322851  
BFF 0505 9900+14 3217+07 3220-07 3021-19 292336 303543 304750  
GLD 0412 3306+16 3017+10 3222-07 3126-19 302736 303841 304549  
GCK 1705+24 2906+17 3314+10 3121-06 3024-19 293135 303941 314050  
GAG 2016+23 2116+15 2912+08 3422-06 3017-17 272832 272841 313451  
AMA 2112 2212+17 2413+09 3317-06 3017-16 282732 312641 323151  
---------------------------------------------------------------------  
 
THIS PRODUCT IS UPDATED AUTOMATICALLY AT APPROXIMATELY 10, 30 AND 50  
MINUTES AFTER EACH HOUR, 24 HOURS PER DAY, 7 DAYS PER WEEK. IT MAY  
BECOME UNAVAILABLE AT TIMES DUE TO SYSTEM OUTAGES WITHOUT PRIOR NOTICE.  
USERS ARE ADVISED TO CHECK THE TIME AT THE TOP OF THE PRODUCT TO ENSURE  
THAT IT IS CURRENT. FURTHERMORE, CONTENT AND FORMAT OF THE PRODUCT ARE  
SUBJECT TO CHANGE WITHOUT PRIOR NOTICE.  
 
COMMENTS AND SUGGESTIONS ARE WELCOME AND SHOULD BE DIRECTED TO ONE OF  
THE ADDRESSES OR PHONE NUMBERS SHOWN AT THE BOTTOM OF THIS PAGE. IN  
ORDER TO EXPEDITE A RESPONSE TO COMMENTS OR SUGGESTIONS, BE SURE TO  
MENTION YOUR INTEREST IN THE HOT-AIR BALLOON FORECAST.  
 
CLICK HERE TO GO TO PREVIOUS BULLETINS.

The Nexlab CO Page Main Text Page